Gill, MA (01354)

12:51 AM EDT on July 31, 2016 (GMT -0400)
Weather at NMH | | Change Station

Elev 436 ft 42.67 °N, 72.48 °W | Updated 24 seconds ago

Mostly Cloudy
Mostly Cloudy
70.4 °F
Feels Like 70.4 °F
N
0.0
Wind Variable Wind from SSW
Gusts 0.0 mph

Today
High -- | Low -- °F
--% Chance of Precip.
Yesterday
High -- | Low -- °F
Precip. -- in
Pressure 30.07 in
Visibility 10.0 miles
Clouds Mostly Cloudy 5500 ft
Mostly Cloudy 7000 ft
Dew Point 68 °F
Humidity 91%
Rainfall 0.02 in
Snow Depth Not available.
5:40 AM 8:10 PM
Waning Crescent, 9% visible
METAR KORE 310352Z AUTO 00000KT 10SM BKN055 BKN070 21/20 A3007 RMK AO2 SLP181 T02110200
Pressure 30.07 in
Visibility 10.0 miles
Clouds Mostly Cloudy 5500 ft
Mostly Cloudy 7000 ft
Dew Point 68 °F
Humidity 91%
Rainfall 0.02 in
Snow Depth Not available.
5:40 AM 8:10 PM
Waning Crescent, 9% visible
METAR KORE 310352Z AUTO 00000KT 10SM BKN055 BKN070 21/20 A3007 RMK AO2 SLP181 T02110200

10-Day Weather Forecast

Almanac

Astronomy

Jul. 31, 2016 Rise Set
Actual Time
Civil Twilight
Nautical Twilight
Astronomical Twilight
Moon
Length of Visible Light
Length of Day
Tomorrow will be .
, % of the Moon is Illuminated

Today's Extremes

State Highs State Lows

Community

WunderPhotos

Upload Photos

1,928,759 photos uploaded!

WunderBlog® & News

Nearby

Air Quality

  Air Quality AQ Index Pollutant
Not available.

Snow Depth

Station Depth Elevation

Earthquake Activity

City Distance Mag. Time & Date
Minimum magnitude displayed is 2.5.

Coastal Water Temperatures

Place Temperature

Stations

Nearby Weather Stations

Station Location Temp. Windchill Dew Point Humidity Wind Precip. Elev Updated Type
                   

Watches & Warnings

There are currently no watches in effect.